Airfield :
LOGIN :

Register | Disclaimer

   EN    FR    IT 

 










Legend :    VFR   Marginal VFR   IFR   Intensive IFR   Very Intensive IFR
Visi :
Ceiling :
>= 8 km
>= 3000ft
5 to 8 km
1000 to 3000 ft
1500m to 5 km
500 to 1000 ft
800 to 1500m
200 to 500 ft
< 800m
< 200 ft
Symbols :   Thunderstorms  Fog  Heavy snow  Heavy precipitations  Wind > 20 kt
SIGMETs :     Misc.  Thunderstorms  Icing  Turbulence  Mountain Waves  Volcanic Ashes







- Airport Elevation : 209 ft
- IATA code : CLY
- Download approach charts


LFKC - Calvi

CURRENT METAR :
  • 210230Z AUTO VRB02KT CAVOK 16/12 Q1011

EXPIRED METARs :
  • 210200Z AUTO 21005KT CAVOK 17/13 Q1011
  • 210130Z AUTO 20005KT CAVOK 16/13 Q1011
  • 210100Z AUTO 19005KT CAVOK 16/13 Q1011
  • 210030Z AUTO 20006KT CAVOK 16/13 Q1011
  • 210000Z AUTO 18005KT 160V220 CAVOK 16/13 Q1012

TAF TAF LFKC
Valid from the 21 at 03:00 until the 22 at 03:00 UTC


210200Z 2103/2203 VRB05KT 9999 SCT080 BKN120
BECMG 2103/2105 FEW020 SCT040TCU OVC080
TEMPO 2108/2121 SHRA FEW015 BKN030TCU
PROB40
TEMPO 2110/2119 36012KT 4000 TSRA SCT020CB BKN030 TX21/2113Z TN14/2104Z
ATIS : +33 4 95 65 82 49
No reported NOTAMs for that airfield.



MET'MAP, your aeronautical weather chart ! - Copyright ORBIFLY December 2007 - Disclaimer

ORBIFLY MET'MAP TEAM :

Programming & Development : Alexandra Zaïnal
Concept & Development : Baudouin d'Aumeries
Co-Development & Prog : Marc-Olivier Méhu
Technical & hardware support : Manuel Goepfert

Contact : metmap@orbifly.com




SOURCES & CREDITS :

   NOAA